Time;durP1;ratioP1;P1;durP2;ratioP2;P2;SDS_P1;SDS_P2;PMS_P1;PMS_P2;Temp;Humidity;BMP_temperature;BMP_pressure;BME280_temperature;BME280_humidity;BME280_pressure;Samples;Min_cycle;Max_cycle;Signal;HPM_P1;HPM_P2
2023/06/24 00:00:13;;;;;;;15.82;8.95;;;;;;;;;;5116719;27;20049;-71
2023/06/24 00:02:43;;;;;;;11.00;9.20;;;;;;;;;;5116204;27;20130;-71
2023/06/24 00:05:09;;;;;;;12.30;8.85;;;;;;;;;;5138449;27;20031;-71
2023/06/24 00:07:43;;;;;;;11.57;7.70;;;;;;;;;;5118214;27;20043;-71
2023/06/24 00:10:10;;;;;;;12.10;8.27;;;;;;;;;;5113031;27;20411;-71
2023/06/24 00:12:37;;;;;;;12.15;8.93;;;;;;;;;;5112850;27;20418;-71
2023/06/24 00:15:04;;;;;;;10.38;8.38;;;;;;;;;;5131656;27;20050;-71
2023/06/24 00:17:30;;;;;;;13.23;8.65;;;;;;;;;;5131970;27;20051;-71
2023/06/24 00:19:56;;;;;;;14.43;8.68;;;;;;;;;;5110809;27;20039;-71
2023/06/24 00:22:22;;;;;;;16.17;8.52;;;;;;;;;;5114121;27;20068;-72
2023/06/24 00:24:50;;;;;;;11.07;7.68;;;;;;;;;;5135987;27;20086;-71
2023/06/24 00:27:16;;;;;;;11.80;8.18;;;;;;;;;;5110551;27;20194;-71
2023/06/24 00:29:42;;;;;;;13.50;8.57;;;;;;;;;;5115745;27;20043;-71
2023/06/24 00:32:08;;;;;;;10.35;7.72;;;;;;;;;;5110314;27;21855;-71
2023/06/24 00:34:35;;;;;;;13.75;9.32;;;;;;;;;;5135139;27;20098;-71
2023/06/24 00:37:03;;;;;;;15.38;9.65;;;;;;;;;;5139741;27;20511;-71
2023/06/24 00:39:29;;;;;;;14.23;9.55;;;;;;;;;;5136230;27;20039;-71
2023/06/24 00:41:55;;;;;;;12.80;10.32;;;;;;;;;;5130403;27;20580;-71
2023/06/24 00:44:21;;;;;;;16.60;10.18;;;;;;;;;;5136085;27;20130;-71
2023/06/24 00:46:49;;;;;;;10.85;9.38;;;;;;;;;;5131651;27;20130;-71
2023/06/24 00:49:15;;;;;;;12.77;9.38;;;;;;;;;;5116476;27;20051;-71
2023/06/24 00:51:47;;;;;;;15.95;10.32;;;;;;;;;;5110497;27;20107;-70
2023/06/24 00:54:13;;;;;;;13.80;9.98;;;;;;;;;;5132816;27;20055;-71
2023/06/24 00:56:41;;;;;;;12.43;10.05;;;;;;;;;;5111782;27;20331;-71
2023/06/24 00:59:07;;;;;;;14.30;10.43;;;;;;;;;;5134014;27;20435;-71
2023/06/24 01:01:35;;;;;;;12.68;9.80;;;;;;;;;;5131603;27;20498;-71
2023/06/24 01:04:02;;;;;;;12.02;9.82;;;;;;;;;;5112902;27;20051;-70
2023/06/24 01:06:29;;;;;;;13.55;9.60;;;;;;;;;;5142272;27;20343;-70
2023/06/24 01:09:02;;;;;;;12.55;10.02;;;;;;;;;;5115594;27;20127;-71
2023/06/24 01:11:28;;;;;;;12.38;9.02;;;;;;;;;;5122171;27;20042;-70
2023/06/24 01:13:55;;;;;;;11.73;8.70;;;;;;;;;;5141532;27;20125;-71
2023/06/24 01:16:27;;;;;;;13.57;9.50;;;;;;;;;;5129186;27;20401;-71
2023/06/24 01:18:55;;;;;;;14.13;8.82;;;;;;;;;;5126187;27;20107;-71
2023/06/24 01:21:24;;;;;;;12.02;9.55;;;;;;;;;;5127636;27;20125;-71
2023/06/24 01:23:53;;;;;;;13.88;10.50;;;;;;;;;;5130269;27;20108;-71
2023/06/24 01:26:21;;;;;;;13.10;10.18;;;;;;;;;;5148560;27;20381;-71
2023/06/24 01:28:50;;;;;;;11.55;9.10;;;;;;;;;;5149489;27;20047;-71
2023/06/24 01:31:19;;;;;;;13.10;9.43;;;;;;;;;;5143312;27;20462;-71
2023/06/24 01:33:55;;;;;;;13.85;9.18;;;;;;;;;;5147862;27;20055;-71
2023/06/24 01:36:22;;;;;;;13.18;9.90;;;;;;;;;;5128740;27;20463;-71
2023/06/24 01:38:55;;;;;;;12.50;9.18;;;;;;;;;;5138242;27;20035;-71
2023/06/24 01:41:22;;;;;;;12.33;8.30;;;;;;;;;;5137994;27;20474;-70
2023/06/24 01:43:51;;;;;;;13.80;9.90;;;;;;;;;;5148550;27;20046;-71
2023/06/24 01:46:20;;;;;;;10.68;8.70;;;;;;;;;;5112604;27;20062;-71
2023/06/24 01:48:47;;;;;;;12.93;9.43;;;;;;;;;;5137206;27;20103;-71
2023/06/24 01:51:18;;;;;;;12.32;10.30;;;;;;;;;;5133492;27;20039;-70
2023/06/24 01:53:49;;;;;;;13.05;9.27;;;;;;;;;;5128959;27;20087;-70
2023/06/24 01:56:15;;;;;;;13.10;9.63;;;;;;;;;;5151222;27;20031;-71
2023/06/24 01:58:43;;;;;;;10.63;8.40;;;;;;;;;;5120302;27;20091;-71
2023/06/24 02:01:09;;;;;;;12.82;9.25;;;;;;;;;;5148680;27;20031;-67
2023/06/24 02:03:36;;;;;;;13.10;9.82;;;;;;;;;;5141836;27;20058;-68
2023/06/24 02:06:02;;;;;;;13.35;9.93;;;;;;;;;;5137239;27;20146;-69
2023/06/24 02:08:30;;;;;;;11.85;8.60;;;;;;;;;;5149374;27;20111;-69
2023/06/24 02:10:57;;;;;;;11.18;8.20;;;;;;;;;;5133410;27;20031;-69
2023/06/24 02:13:23;;;;;;;14.18;8.82;;;;;;;;;;5125206;27;20095;-69
2023/06/24 02:15:50;;;;;;;13.00;8.82;;;;;;;;;;5152504;27;20035;-69
2023/06/24 02:18:17;;;;;;;12.35;8.80;;;;;;;;;;5152974;27;20046;-69
2023/06/24 02:20:44;;;;;;;11.75;9.43;;;;;;;;;;5156732;27;20035;-69
2023/06/24 02:23:11;;;;;;;13.75;9.38;;;;;;;;;;5133606;27;20070;-69
2023/06/24 02:25:42;;;;;;;10.75;8.63;;;;;;;;;;5153880;27;20050;-69
2023/06/24 02:28:08;;;;;;;11.82;8.98;;;;;;;;;;5140028;27;20386;-69
2023/06/24 02:30:39;;;;;;;13.20;9.70;;;;;;;;;;5119836;27;20050;-69
2023/06/24 02:33:06;;;;;;;13.95;9.75;;;;;;;;;;5113378;27;20081;-69
2023/06/24 02:35:32;;;;;;;18.90;10.50;;;;;;;;;;5133621;27;20117;-69
2023/06/24 02:37:58;;;;;;;13.52;10.52;;;;;;;;;;5133946;27;20062;-69
2023/06/24 02:40:25;;;;;;;16.30;11.38;;;;;;;;;;5113069;27;20458;-69
2023/06/24 02:42:52;;;;;;;14.73;10.73;;;;;;;;;;5133579;27;20070;-69
2023/06/24 02:45:18;;;;;;;17.10;11.57;;;;;;;;;;5108292;27;20058;-69
2023/06/24 02:47:45;;;;;;;16.60;12.10;;;;;;;;;;5139273;27;20038;-69
2023/06/24 02:50:12;;;;;;;16.98;11.60;;;;;;;;;;5115080;27;20455;-69
2023/06/24 02:52:38;;;;;;;17.08;12.18;;;;;;;;;;5132301;27;20435;-69
2023/06/24 02:55:06;;;;;;;17.35;11.18;;;;;;;;;;5119024;27;20056;-69
2023/06/24 02:57:32;;;;;;;18.17;11.88;;;;;;;;;;5118641;27;20177;-69
2023/06/24 02:59:59;;;;;;;16.13;12.25;;;;;;;;;;5136431;27;20092;-69
2023/06/24 03:02:25;;;;;;;16.33;11.50;;;;;;;;;;5133086;27;20046;-69
2023/06/24 03:04:52;;;;;;;16.80;11.95;;;;;;;;;;5111698;27;20034;-69
2023/06/24 03:07:22;;;;;;;15.60;11.80;;;;;;;;;;5133829;27;20055;-69
2023/06/24 03:09:48;;;;;;;16.10;10.98;;;;;;;;;;5113249;27;20471;-69
2023/06/24 03:12:14;;;;;;;13.35;11.10;;;;;;;;;;5114347;27;20434;-68
2023/06/24 03:14:40;;;;;;;13.88;10.63;;;;;;;;;;5111364;27;20089;-69
2023/06/24 03:17:08;;;;;;;19.48;11.27;;;;;;;;;;5096341;27;20186;-69
2023/06/24 03:19:34;;;;;;;15.40;10.80;;;;;;;;;;5112386;27;20043;-69
2023/06/24 03:22:00;;;;;;;15.75;11.52;;;;;;;;;;5113595;27;20507;-69
2023/06/24 03:24:26;;;;;;;16.52;11.85;;;;;;;;;;5122669;27;20058;-68
2023/06/24 03:26:56;;;;;;;14.98;10.85;;;;;;;;;;5133029;27;20039;-69
2023/06/24 03:29:23;;;;;;;15.18;10.05;;;;;;;;;;5116320;27;20153;-69
2023/06/24 03:31:50;;;;;;;15.73;10.82;;;;;;;;;;5118153;27;20047;-69
2023/06/24 03:34:19;;;;;;;17.85;11.50;;;;;;;;;;5138686;27;20107;-68
2023/06/24 03:36:45;;;;;;;18.63;11.63;;;;;;;;;;5139236;27;20406;-69
2023/06/24 03:39:11;;;;;;;13.40;10.65;;;;;;;;;;5112669;27;20831;-69
2023/06/24 03:41:39;;;;;;;15.27;10.60;;;;;;;;;;5118589;27;20043;-69
2023/06/24 03:44:05;;;;;;;15.13;11.43;;;;;;;;;;5123385;27;20049;-69
2023/06/24 03:46:32;;;;;;;16.52;11.40;;;;;;;;;;5122505;27;20046;-69
2023/06/24 03:49:00;;;;;;;16.70;11.40;;;;;;;;;;5135626;27;20080;-69
2023/06/24 03:51:26;;;;;;;17.05;11.35;;;;;;;;;;5115221;27;20058;-69
2023/06/24 03:53:52;;;;;;;14.25;10.80;;;;;;;;;;5132159;27;20120;-68
2023/06/24 03:56:19;;;;;;;17.85;11.55;;;;;;;;;;5137633;27;20499;-69
2023/06/24 03:58:45;;;;;;;14.63;11.15;;;;;;;;;;5112465;27;20180;-69
2023/06/24 04:01:11;;;;;;;15.27;11.65;;;;;;;;;;5135057;27;20045;-69
2023/06/24 04:03:37;;;;;;;16.55;10.98;;;;;;;;;;5130822;27;20031;-69
2023/06/24 04:06:03;;;;;;;18.60;12.23;;;;;;;;;;5131972;27;20054;-69
2023/06/24 04:08:30;;;;;;;18.33;12.35;;;;;;;;;;5115468;27;20514;-69
2023/06/24 04:10:56;;;;;;;17.73;11.43;;;;;;;;;;5129494;27;20066;-69
2023/06/24 04:13:22;;;;;;;14.18;11.25;;;;;;;;;;5112964;27;20157;-68
2023/06/24 04:15:49;;;;;;;19.25;12.25;;;;;;;;;;5106780;27;20173;-69
2023/06/24 04:18:15;;;;;;;16.02;11.65;;;;;;;;;;5131612;27;20053;-69
2023/06/24 04:20:41;;;;;;;17.52;12.93;;;;;;;;;;5116116;27;20062;-69
2023/06/24 04:23:09;;;;;;;16.45;12.13;;;;;;;;;;5098485;27;20043;-69
2023/06/24 04:25:36;;;;;;;14.23;11.80;;;;;;;;;;5111551;27;20039;-69
2023/06/24 04:28:02;;;;;;;14.25;11.75;;;;;;;;;;5131690;27;20047;-69
2023/06/24 04:30:28;;;;;;;16.90;12.35;;;;;;;;;;5135730;27;20047;-68
2023/06/24 04:32:54;;;;;;;19.83;13.00;;;;;;;;;;5132989;27;20057;-69
2023/06/24 04:35:21;;;;;;;18.48;13.15;;;;;;;;;;5130693;27;20053;-69
2023/06/24 04:37:49;;;;;;;18.02;11.80;;;;;;;;;;5113330;27;20038;-69
2023/06/24 04:40:16;;;;;;;18.63;12.70;;;;;;;;;;5129025;27;20046;-69
2023/06/24 04:42:42;;;;;;;19.00;12.82;;;;;;;;;;5113864;27;20106;-69
2023/06/24 04:45:08;;;;;;;19.23;12.68;;;;;;;;;;5123069;27;20054;-69
2023/06/24 04:47:35;;;;;;;19.45;14.18;;;;;;;;;;5113061;27;20035;-68
2023/06/24 04:50:01;;;;;;;17.95;13.60;;;;;;;;;;5109800;27;20059;-68
2023/06/24 04:52:27;;;;;;;14.88;12.95;;;;;;;;;;5134602;27;20031;-69
2023/06/24 04:54:54;;;;;;;18.88;14.13;;;;;;;;;;5113124;27;20047;-69
2023/06/24 04:57:38;;;;;;;19.27;12.82;;;;;;;;;;5129297;27;20509;-69
2023/06/24 05:00:04;;;;;;;17.50;13.10;;;;;;;;;;5116036;27;20417;-69
2023/06/24 05:02:30;;;;;;;17.52;14.20;;;;;;;;;;5118037;27;20126;-69
2023/06/24 05:04:56;;;;;;;20.17;14.23;;;;;;;;;;5110689;27;20133;-69
2023/06/24 05:07:23;;;;;;;18.20;13.40;;;;;;;;;;5113640;27;20046;-68
2023/06/24 05:09:51;;;;;;;18.13;13.73;;;;;;;;;;5127943;27;20043;-69
2023/06/24 05:12:17;;;;;;;18.58;14.27;;;;;;;;;;5145531;27;20043;-69
2023/06/24 05:14:43;;;;;;;19.77;13.05;;;;;;;;;;5131010;27;20094;-69
2023/06/24 05:17:09;;;;;;;18.80;13.88;;;;;;;;;;5135058;27;20045;-69
2023/06/24 05:19:35;;;;;;;17.42;14.13;;;;;;;;;;5130928;27;20054;-69
2023/06/24 05:22:02;;;;;;;17.70;13.13;;;;;;;;;;5151743;27;20041;-69
2023/06/24 05:24:28;;;;;;;17.45;13.15;;;;;;;;;;5152637;27;20515;-69
2023/06/24 05:26:54;;;;;;;18.65;13.32;;;;;;;;;;5134959;27;20363;-69
2023/06/24 05:29:21;;;;;;;17.70;14.48;;;;;;;;;;5150927;27;20074;-71
2023/06/24 05:31:47;;;;;;;18.27;14.52;;;;;;;;;;5134692;27;20043;-70
2023/06/24 05:34:13;;;;;;;24.25;13.48;;;;;;;;;;5133797;27;20047;-71
2023/06/24 05:36:39;;;;;;;19.35;12.73;;;;;;;;;;5134189;27;20095;-72
2023/06/24 05:39:07;;;;;;;20.90;14.57;;;;;;;;;;5125957;27;20106;-71
2023/06/24 05:41:34;;;;;;;16.67;12.85;;;;;;;;;;5139063;27;20125;-71
2023/06/24 05:44:04;;;;;;;19.67;12.63;;;;;;;;;;5120307;27;20500;-69
2023/06/24 05:46:31;;;;;;;18.90;14.32;;;;;;;;;;5153390;27;20070;-70
2023/06/24 05:48:57;;;;;;;19.83;13.65;;;;;;;;;;5140945;27;20466;-70
2023/06/24 05:51:23;;;;;;;16.30;13.60;;;;;;;;;;5134384;27;20050;-70
2023/06/24 05:53:50;;;;;;;17.23;12.85;;;;;;;;;;5113504;28;20515;-70
2023/06/24 05:56:16;;;;;;;17.92;13.32;;;;;;;;;;5110965;27;20118;-70
2023/06/24 05:58:42;;;;;;;18.58;13.48;;;;;;;;;;5144948;27;20091;-70
2023/06/24 06:01:10;;;;;;;16.38;13.70;;;;;;;;;;5129982;27;20041;-70
2023/06/24 06:03:36;;;;;;;19.05;13.55;;;;;;;;;;5142333;27;20047;-71
2023/06/24 06:06:02;;;;;;;19.23;13.82;;;;;;;;;;5132588;27;20477;-71
2023/06/24 06:08:28;;;;;;;18.08;14.45;;;;;;;;;;5118602;27;20039;-71
2023/06/24 06:10:55;;;;;;;19.30;13.25;;;;;;;;;;5154654;27;20515;-71
2023/06/24 06:13:21;;;;;;;19.58;13.82;;;;;;;;;;5152218;27;20049;-70
2023/06/24 06:15:47;;;;;;;25.00;13.43;;;;;;;;;;5119404;27;20035;-70
2023/06/24 06:18:13;;;;;;;16.05;12.40;;;;;;;;;;5124904;27;20070;-70
2023/06/24 06:20:39;;;;;;;18.77;13.13;;;;;;;;;;5120090;27;20035;-70
2023/06/24 06:23:06;;;;;;;18.65;12.60;;;;;;;;;;5138674;27;20428;-70
2023/06/24 06:25:32;;;;;;;20.38;14.32;;;;;;;;;;5139809;27;20047;-70
2023/06/24 06:27:59;;;;;;;20.15;13.88;;;;;;;;;;5146547;27;20053;-71
2023/06/24 06:30:25;;;;;;;22.55;14.07;;;;;;;;;;5143595;27;20137;-70
2023/06/24 06:32:51;;;;;;;16.67;12.77;;;;;;;;;;5144734;27;20039;-71
2023/06/24 06:35:17;;;;;;;16.92;12.95;;;;;;;;;;5142724;27;20035;-70
2023/06/24 06:37:44;;;;;;;16.70;12.98;;;;;;;;;;5145192;27;20038;-70
2023/06/24 06:40:10;;;;;;;16.67;13.07;;;;;;;;;;5143435;27;20035;-70
2023/06/24 06:42:36;;;;;;;17.95;13.25;;;;;;;;;;5144473;27;20101;-70
2023/06/24 06:45:03;;;;;;;19.98;13.70;;;;;;;;;;5120696;27;20118;-70
2023/06/24 06:47:29;;;;;;;18.25;12.52;;;;;;;;;;5145222;27;20050;-70
2023/06/24 06:49:55;;;;;;;19.05;13.25;;;;;;;;;;5151057;27;20038;-70
2023/06/24 06:52:21;;;;;;;18.88;12.40;;;;;;;;;;5142534;27;20046;-70
2023/06/24 06:54:47;;;;;;;16.52;12.00;;;;;;;;;;5149666;27;20051;-70
2023/06/24 06:57:14;;;;;;;20.08;13.55;;;;;;;;;;5156174;27;20102;-70
2023/06/24 06:59:40;;;;;;;16.58;11.05;;;;;;;;;;5136635;27;20050;-70
2023/06/24 07:02:06;;;;;;;14.60;11.70;;;;;;;;;;5156065;27;20130;-70
2023/06/24 07:04:33;;;;;;;16.45;11.25;;;;;;;;;;5153852;27;20078;-70
2023/06/24 07:06:59;;;;;;;16.67;11.63;;;;;;;;;;5128684;27;20039;-70
2023/06/24 07:09:25;;;;;;;15.73;11.20;;;;;;;;;;5147428;27;20050;-69
2023/06/24 07:11:51;;;;;;;17.77;12.30;;;;;;;;;;5117951;27;20118;-70
2023/06/24 07:14:17;;;;;;;19.63;12.07;;;;;;;;;;5128219;27;20050;-70
2023/06/24 07:16:44;;;;;;;16.88;12.40;;;;;;;;;;5153171;27;20696;-72
2023/06/24 07:19:10;;;;;;;15.35;11.65;;;;;;;;;;5153102;27;20046;-72
2023/06/24 07:21:36;;;;;;;15.35;12.15;;;;;;;;;;5128685;27;20034;-72
2023/06/24 07:24:02;;;;;;;20.02;12.52;;;;;;;;;;5155989;27;20030;-72
2023/06/24 07:26:30;;;;;;;17.27;12.23;;;;;;;;;;5124580;27;20047;-72
2023/06/24 07:29:00;;;;;;;20.20;12.60;;;;;;;;;;5153696;27;20130;-72
2023/06/24 07:31:26;;;;;;;15.93;12.43;;;;;;;;;;5108296;27;20098;-72
2023/06/24 07:33:53;;;;;;;15.35;11.50;;;;;;;;;;5135565;27;20394;-72
2023/06/24 07:36:19;;;;;;;18.02;14.18;;;;;;;;;;5124829;27;20067;-72
2023/06/24 07:38:45;;;;;;;17.92;13.48;;;;;;;;;;5132759;27;20042;-72
2023/06/24 07:41:11;;;;;;;14.45;12.00;;;;;;;;;;5136919;27;20088;-72
2023/06/24 07:43:38;;;;;;;15.30;12.30;;;;;;;;;;5138946;27;20043;-72
2023/06/24 07:46:05;;;;;;;21.63;13.05;;;;;;;;;;5139657;27;20034;-72
2023/06/24 07:48:31;;;;;;;15.23;12.30;;;;;;;;;;5136705;27;20083;-73
2023/06/24 07:50:58;;;;;;;15.65;12.50;;;;;;;;;;5153741;27;20474;-72
2023/06/24 07:53:24;;;;;;;17.27;11.57;;;;;;;;;;5136445;27;20414;-73
2023/06/24 07:55:51;;;;;;;16.83;12.13;;;;;;;;;;5133698;27;20077;-72
2023/06/24 07:58:19;;;;;;;15.90;11.50;;;;;;;;;;5106269;27;20053;-72
2023/06/24 08:00:45;;;;;;;15.75;11.20;;;;;;;;;;5126011;27;20060;-73
2023/06/24 08:03:12;;;;;;;15.48;11.23;;;;;;;;;;5121029;27;20039;-72
2023/06/24 08:05:41;;;;;;;16.40;11.38;;;;;;;;;;5146283;27;20050;-72
2023/06/24 08:08:08;;;;;;;17.10;12.52;;;;;;;;;;5151610;27;20088;-72
2023/06/24 08:10:35;;;;;;;17.95;11.80;;;;;;;;;;5134328;27;20055;-72
2023/06/24 08:13:01;;;;;;;18.60;12.02;;;;;;;;;;5136172;27;20102;-73
2023/06/24 08:15:27;;;;;;;16.15;11.90;;;;;;;;;;5133019;27;20050;-72
2023/06/24 08:17:54;;;;;;;15.48;10.73;;;;;;;;;;5135657;27;20489;-72
2023/06/24 08:20:21;;;;;;;16.80;11.68;;;;;;;;;;5133288;27;20031;-72
2023/06/24 08:22:47;;;;;;;16.63;11.82;;;;;;;;;;5141789;27;20054;-72
2023/06/24 08:25:13;;;;;;;15.60;10.90;;;;;;;;;;5133079;27;20115;-72
2023/06/24 08:27:40;;;;;;;16.88;11.23;;;;;;;;;;5131792;27;20405;-72
2023/06/24 08:30:06;;;;;;;22.00;10.70;;;;;;;;;;5136584;27;20043;-72
2023/06/24 08:32:33;;;;;;;14.70;11.13;;;;;;;;;;5131055;27;20046;-72
2023/06/24 08:34:59;;;;;;;17.85;11.35;;;;;;;;;;5115579;27;20440;-72
2023/06/24 08:37:27;;;;;;;14.00;10.30;;;;;;;;;;5115606;27;20383;-72
2023/06/24 08:39:53;;;;;;;17.15;10.75;;;;;;;;;;5146026;27;20043;-72
2023/06/24 08:42:20;;;;;;;13.23;10.13;;;;;;;;;;5153028;27;20049;-72
2023/06/24 08:44:46;;;;;;;13.50;9.48;;;;;;;;;;5119831;27;20431;-71
2023/06/24 08:47:14;;;;;;;12.07;8.25;;;;;;;;;;5121437;27;20060;-72
2023/06/24 08:49:44;;;;;;;14.93;8.80;;;;;;;;;;5142653;27;20153;-72
2023/06/24 08:52:14;;;;;;;13.73;8.15;;;;;;;;;;5144673;27;20039;-72
2023/06/24 08:54:41;;;;;;;12.75;8.82;;;;;;;;;;5129714;27;20069;-72
2023/06/24 08:57:09;;;;;;;10.23;6.80;;;;;;;;;;5128501;27;20130;-72
2023/06/24 08:59:38;;;;;;;11.65;7.70;;;;;;;;;;5112999;27;20081;-72
2023/06/24 09:02:04;;;;;;;13.07;7.97;;;;;;;;;;5133650;27;20046;-72
2023/06/24 09:04:30;;;;;;;11.00;7.30;;;;;;;;;;5141182;27;20039;-72
2023/06/24 09:06:57;;;;;;;9.70;6.68;;;;;;;;;;5134159;27;20114;-72
2023/06/24 09:09:23;;;;;;;12.95;7.47;;;;;;;;;;5106458;27;20051;-72
2023/06/24 09:12:00;;;;;;;15.75;7.82;;;;;;;;;;5153340;27;20483;-72
2023/06/24 09:14:26;;;;;;;14.15;8.23;;;;;;;;;;5123233;27;20051;-72
2023/06/24 09:16:53;;;;;;;12.57;8.18;;;;;;;;;;5152605;27;20606;-69
2023/06/24 09:19:23;;;;;;;12.55;8.27;;;;;;;;;;5134400;27;20050;-67
2023/06/24 09:21:50;;;;;;;10.82;8.00;;;;;;;;;;5119776;27;20125;-68
2023/06/24 09:24:17;;;;;;;13.48;7.88;;;;;;;;;;5134484;27;20050;-67
2023/06/24 09:26:44;;;;;;;9.98;6.57;;;;;;;;;;5132383;27;20042;-67
2023/06/24 09:29:11;;;;;;;11.80;6.95;;;;;;;;;;5130437;27;20087;-69
2023/06/24 09:31:46;;;;;;;9.65;7.32;;;;;;;;;;5131795;28;20089;-68
2023/06/24 09:34:16;;;;;;;14.90;7.07;;;;;;;;;;5118246;28;20059;-68
2023/06/24 09:36:43;;;;;;;11.52;6.82;;;;;;;;;;5122135;28;20043;-68
2023/06/24 09:39:10;;;;;;;8.70;6.25;;;;;;;;;;5126766;28;20040;-69
2023/06/24 09:41:36;;;;;;;8.63;5.50;;;;;;;;;;5122847;28;20035;-69
2023/06/24 09:44:03;;;;;;;7.55;5.25;;;;;;;;;;5116275;28;20139;-68
2023/06/24 09:46:32;;;;;;;9.13;6.35;;;;;;;;;;5126423;28;20043;-69
2023/06/24 09:48:58;;;;;;;8.27;6.05;;;;;;;;;;5128167;28;20050;-71
2023/06/24 09:51:25;;;;;;;9.23;5.63;;;;;;;;;;5131777;27;20039;-71
2023/06/24 09:53:53;;;;;;;8.40;5.03;;;;;;;;;;5121300;28;20039;-71
2023/06/24 09:56:19;;;;;;;9.50;6.25;;;;;;;;;;5129082;27;20051;-71
2023/06/24 09:58:46;;;;;;;9.32;4.78;;;;;;;;;;5119857;27;20039;-70
2023/06/24 10:01:13;;;;;;;8.00;4.72;;;;;;;;;;5119727;27;20075;-70
2023/06/24 10:03:39;;;;;;;9.88;5.70;;;;;;;;;;5123760;27;20101;-71
2023/06/24 10:06:06;;;;;;;8.98;5.43;;;;;;;;;;5132447;27;20035;-71
2023/06/24 10:08:32;;;;;;;10.02;4.60;;;;;;;;;;5132806;27;20050;-70
2023/06/24 10:11:02;;;;;;;8.88;5.20;;;;;;;;;;5129097;27;20047;-71
2023/06/24 10:13:28;;;;;;;11.35;5.25;;;;;;;;;;5133589;27;20131;-71
2023/06/24 10:15:56;;;;;;;8.13;4.50;;;;;;;;;;5136282;27;20039;-71
2023/06/24 10:18:42;;;;;;;8.52;4.75;;;;;;;;;;5133995;27;20130;-71
2023/06/24 10:21:09;;;;;;;8.55;5.60;;;;;;;;;;5121771;27;20039;-71
2023/06/24 10:23:50;;;;;;;9.80;6.55;;;;;;;;;;5133839;27;20039;-71
2023/06/24 10:26:29;;;;;;;7.65;4.63;;;;;;;;;;5132639;27;20047;-71
2023/06/24 10:29:08;;;;;;;7.45;5.22;;;;;;;;;;5131580;27;20081;-71
2023/06/24 10:31:40;;;;;;;9.70;5.85;;;;;;;;;;5116368;27;20050;-71
2023/06/24 10:34:06;;;;;;;;;;;;;;;;;;5136751;27;20048;-71
2023/06/24 10:36:33;;;;;;;10.35;4.93;;;;;;;;;;5125895;27;19923;-70
2023/06/24 10:38:59;;;;;;;10.05;5.55;;;;;;;;;;5156226;27;20042;-71
2023/06/24 10:41:25;;;;;;;10.77;5.00;;;;;;;;;;5155778;27;20047;-71
2023/06/24 10:43:57;;;;;;;9.93;4.45;;;;;;;;;;5124082;27;20047;-71
2023/06/24 10:46:27;;;;;;;7.73;4.57;;;;;;;;;;5122692;27;20103;-71
2023/06/24 10:48:53;;;;;;;7.72;3.75;;;;;;;;;;5153030;27;20469;-71
2023/06/24 10:51:20;;;;;;;6.72;3.85;;;;;;;;;;5134288;27;20034;-71
2023/06/24 10:53:46;;;;;;;5.35;3.28;;;;;;;;;;5128431;27;20085;-71
2023/06/24 10:56:12;;;;;;;11.50;5.22;;;;;;;;;;5156126;27;20043;-71
2023/06/24 10:58:38;;;;;;;6.15;4.53;;;;;;;;;;5116484;27;20043;-71
2023/06/24 11:01:08;;;;;;;4.72;2.92;;;;;;;;;;5150138;27;20035;-71
2023/06/24 11:03:35;;;;;;;5.68;3.30;;;;;;;;;;5131526;27;20099;-71
2023/06/24 11:06:05;;;;;;;6.88;3.97;;;;;;;;;;5149498;27;20046;-71
2023/06/24 11:08:31;;;;;;;7.45;4.20;;;;;;;;;;5154809;27;20049;-71
2023/06/24 11:10:57;;;;;;;5.53;3.45;;;;;;;;;;5129519;27;20114;-71
2023/06/24 11:13:23;;;;;;;5.97;4.05;;;;;;;;;;5154815;27;20054;-71
2023/06/24 11:15:50;;;;;;;6.32;3.95;;;;;;;;;;5155786;27;20042;-71
2023/06/24 11:18:16;;;;;;;6.53;4.25;;;;;;;;;;5135836;27;20116;-71
2023/06/24 11:20:43;;;;;;;6.95;3.78;;;;;;;;;;5111655;27;20276;-71
2023/06/24 11:23:12;;;;;;;8.32;4.03;;;;;;;;;;5112149;27;20628;-71
2023/06/24 11:25:42;;;;;;;9.23;4.38;;;;;;;;;;5155962;27;20050;-71
2023/06/24 11:28:15;;;;;;;5.70;3.35;;;;;;;;;;5153945;27;20062;-71
2023/06/24 11:30:41;;;;;;;6.28;3.40;;;;;;;;;;5141789;27;20446;-71
2023/06/24 11:33:08;;;;;;;4.03;2.22;;;;;;;;;;5136243;27;20042;-71
2023/06/24 11:35:36;;;;;;;5.45;3.28;;;;;;;;;;5152813;27;20035;-71
2023/06/24 11:38:02;;;;;;;5.80;2.88;;;;;;;;;;5155573;27;20095;-71
2023/06/24 11:40:31;;;;;;;5.85;2.92;;;;;;;;;;5139384;27;20022;-71
2023/06/24 11:42:57;;;;;;;4.03;2.05;;;;;;;;;;5130697;27;20393;-71
2023/06/24 11:45:23;;;;;;;6.32;2.83;;;;;;;;;;5136041;27;20086;-71
2023/06/24 11:47:49;;;;;;;7.18;3.05;;;;;;;;;;5135845;27;20558;-71
2023/06/24 11:50:15;;;;;;;4.57;2.58;;;;;;;;;;5153217;27;20111;-71
2023/06/24 11:52:43;;;;;;;5.68;2.20;;;;;;;;;;5134923;27;20472;-71
2023/06/24 11:55:13;;;;;;;7.60;2.47;;;;;;;;;;5152886;27;20481;-71
2023/06/24 11:57:50;;;;;;;6.00;2.35;;;;;;;;;;5136438;27;20456;-71
2023/06/24 12:00:17;;;;;;;3.25;1.80;;;;;;;;;;5136617;27;20054;-71
2023/06/24 12:02:43;;;;;;;5.40;2.42;;;;;;;;;;5114262;27;20428;-71
2023/06/24 12:05:09;;;;;;;4.32;2.00;;;;;;;;;;5135887;27;20113;-71
2023/06/24 12:07:35;;;;;;;3.60;1.83;;;;;;;;;;5132816;27;20042;-71
2023/06/24 12:10:02;;;;;;;3.63;1.90;;;;;;;;;;5132830;27;20039;-71
2023/06/24 12:12:28;;;;;;;4.18;1.73;;;;;;;;;;5154585;27;20462;-71
2023/06/24 12:14:55;;;;;;;4.68;1.58;;;;;;;;;;5154770;27;20051;-71
2023/06/24 12:17:21;;;;;;;5.28;1.80;;;;;;;;;;5135406;27;20073;-71
2023/06/24 12:19:47;;;;;;;4.43;2.63;;;;;;;;;;5146890;27;20051;-71
2023/06/24 12:22:13;;;;;;;4.53;2.50;;;;;;;;;;5135135;27;20034;-71
2023/06/24 12:24:40;;;;;;;5.13;2.72;;;;;;;;;;5134303;27;20048;-71
2023/06/24 12:27:06;;;;;;;5.53;2.50;;;;;;;;;;5135732;27;20386;-71
2023/06/24 12:29:32;;;;;;;5.70;2.72;;;;;;;;;;5145934;27;20078;-70
2023/06/24 12:31:58;;;;;;;6.00;2.70;;;;;;;;;;5150680;27;20046;-71
2023/06/24 12:34:24;;;;;;;5.63;2.85;;;;;;;;;;5148792;27;20065;-71
2023/06/24 12:36:51;;;;;;;3.72;2.40;;;;;;;;;;5124862;27;20156;-71
2023/06/24 12:39:17;;;;;;;4.22;2.42;;;;;;;;;;5146782;27;20498;-71
2023/06/24 12:41:43;;;;;;;5.70;2.90;;;;;;;;;;5150634;27;20123;-71
2023/06/24 12:44:09;;;;;;;7.45;3.17;;;;;;;;;;5128854;27;20478;-71
2023/06/24 12:46:35;;;;;;;7.53;2.90;;;;;;;;;;5152293;27;20047;-71
2023/06/24 12:49:02;;;;;;;7.53;3.03;;;;;;;;;;5135566;27;20049;-71
2023/06/24 12:51:28;;;;;;;8.07;3.22;;;;;;;;;;5132546;27;20095;-71
2023/06/24 12:53:54;;;;;;;4.35;2.75;;;;;;;;;;5121688;27;20043;-75
2023/06/24 12:56:20;;;;;;;6.57;2.97;;;;;;;;;;5124215;27;20107;-71
2023/06/24 12:58:46;;;;;;;4.47;2.45;;;;;;;;;;5118994;27;20078;-72
2023/06/24 13:01:13;;;;;;;6.47;2.60;;;;;;;;;;5131331;27;20100;-72
2023/06/24 13:03:39;;;;;;;6.18;2.53;;;;;;;;;;5103395;27;20047;-72
2023/06/24 13:06:05;;;;;;;4.28;2.42;;;;;;;;;;5134152;27;20077;-72
2023/06/24 13:08:31;;;;;;;5.45;2.20;;;;;;;;;;5153561;27;20397;-72
2023/06/24 13:10:58;;;;;;;4.72;2.42;;;;;;;;;;5127187;27;20039;-72
2023/06/24 13:13:24;;;;;;;5.63;2.40;;;;;;;;;;5126486;27;20043;-72
2023/06/24 13:15:50;;;;;;;4.82;2.53;;;;;;;;;;5152209;27;20045;-72
2023/06/24 13:18:17;;;;;;;4.20;1.92;;;;;;;;;;5134626;27;20079;-72
2023/06/24 13:20:44;;;;;;;4.35;2.00;;;;;;;;;;5142326;27;20172;-73
2023/06/24 13:23:11;;;;;;;6.00;2.28;;;;;;;;;;5133351;27;20496;-72
2023/06/24 13:25:37;;;;;;;3.90;2.00;;;;;;;;;;5149973;27;20027;-73
2023/06/24 13:28:03;;;;;;;4.40;2.00;;;;;;;;;;5123651;27;20058;-73
2023/06/24 13:30:30;;;;;;;4.15;1.95;;;;;;;;;;5105115;28;20044;-73
2023/06/24 13:32:56;;;;;;;3.92;2.10;;;;;;;;;;5128615;28;20051;-72
2023/06/24 13:35:22;;;;;;;4.45;2.53;;;;;;;;;;5135997;27;20031;-72
2023/06/24 13:37:48;;;;;;;5.18;2.42;;;;;;;;;;5137417;27;20054;-72
2023/06/24 13:40:14;;;;;;;5.43;2.60;;;;;;;;;;5138418;27;20092;-72
2023/06/24 13:42:41;;;;;;;4.28;2.00;;;;;;;;;;5128060;27;20134;-72
2023/06/24 13:45:07;;;;;;;4.85;2.65;;;;;;;;;;5138345;27;20442;-73
2023/06/24 13:47:33;;;;;;;6.95;2.88;;;;;;;;;;5137757;27;20051;-72
2023/06/24 13:49:59;;;;;;;5.55;2.63;;;;;;;;;;5127688;27;20031;-73
2023/06/24 13:52:26;;;;;;;5.32;2.53;;;;;;;;;;5138145;27;20145;-73
2023/06/24 13:54:53;;;;;;;4.57;2.38;;;;;;;;;;5132879;27;20141;-72
2023/06/24 13:57:19;;;;;;;3.15;1.60;;;;;;;;;;5133821;27;20074;-72
2023/06/24 13:59:45;;;;;;;4.97;1.95;;;;;;;;;;5126452;27;20044;-72
2023/06/24 14:02:11;;;;;;;6.25;2.67;;;;;;;;;;5123533;27;20106;-72
2023/06/24 14:04:41;;;;;;;5.68;3.13;;;;;;;;;;5139284;27;20031;-72
2023/06/24 14:07:08;;;;;;;5.18;2.70;;;;;;;;;;5132891;27;20070;-72
2023/06/24 14:09:34;;;;;;;5.35;2.95;;;;;;;;;;5128106;27;20043;-72
2023/06/24 14:12:00;;;;;;;4.28;2.40;;;;;;;;;;5134898;27;20038;-72
2023/06/24 14:14:26;;;;;;;3.65;2.20;;;;;;;;;;5137714;27;20039;-72
2023/06/24 14:16:53;;;;;;;4.75;2.08;;;;;;;;;;5132448;27;20191;-72
2023/06/24 14:19:19;;;;;;;5.68;2.03;;;;;;;;;;5138041;27;20160;-73
2023/06/24 14:21:45;;;;;;;5.35;2.40;;;;;;;;;;5136043;27;20126;-72
2023/06/24 14:24:11;;;;;;;5.93;2.53;;;;;;;;;;5126546;27;20040;-73
2023/06/24 14:26:38;;;;;;;5.13;2.20;;;;;;;;;;5129085;27;20051;-73